createdAt,value
2017-11-16T00:02:12.836Z,75.20
2017-11-16T00:04:41.928Z,61.60
2017-11-16T00:07:10.227Z,76.70
2017-11-16T00:09:38.536Z,54.73
2017-11-16T00:12:06.995Z,196.43
2017-11-16T00:14:35.396Z,107.13
2017-11-16T00:17:03.683Z,78.73
2017-11-16T00:19:32.177Z,116.47
2017-11-16T00:22:00.469Z,91.67
2017-11-16T00:24:28.772Z,56.47
2017-11-16T00:26:57.864Z,129.10
2017-11-16T00:29:26.160Z,100.57
2017-11-16T00:31:55.241Z,63.73
2017-11-16T00:34:23.533Z,94.67
2017-11-16T00:36:51.892Z,146.53
2017-11-16T00:39:20.210Z,84.00
2017-11-16T00:41:48.513Z,83.50
2017-11-16T00:44:16.828Z,91.03
2017-11-16T00:46:45.160Z,65.73
2017-11-16T00:49:13.452Z,160.33
2017-11-16T00:51:41.884Z,137.00
2017-11-16T00:54:10.181Z,210.47
2017-11-16T00:56:39.277Z,78.13
2017-11-16T00:59:07.672Z,192.37
2017-11-16T01:01:35.969Z,62.07
2017-11-16T01:04:05.071Z,54.53
2017-11-16T01:06:33.361Z,92.17
2017-11-16T01:09:02.447Z,75.80
2017-11-16T01:11:30.769Z,93.20
2017-11-16T01:13:59.833Z,57.47
2017-11-16T01:16:28.249Z,84.90
2017-11-16T01:18:56.539Z,60.73
2017-11-16T01:21:24.899Z,71.97
2017-11-16T01:23:53.221Z,106.17
2017-11-16T01:26:21.511Z,59.47
2017-11-16T01:28:49.831Z,56.47
2017-11-16T01:31:18.119Z,101.90
2017-11-16T01:33:46.440Z,144.60
2017-11-16T01:36:14.755Z,84.67
2017-11-16T01:38:43.047Z,139.50
2017-11-16T01:41:11.354Z,99.50
2017-11-16T01:43:40.412Z,74.90
2017-11-16T01:46:09.088Z,133.03
2017-11-16T01:48:37.377Z,54.93
2017-11-16T01:51:05.672Z,103.73
2017-11-16T01:53:33.994Z,84.00
2017-11-16T01:56:02.328Z,100.60
2017-11-16T01:58:31.428Z,112.43
2017-11-16T02:01:00.515Z,165.63
2017-11-16T02:03:28.843Z,168.40
2017-11-16T02:05:57.191Z,93.77
2017-11-16T02:08:25.488Z,147.47
2017-11-16T02:10:54.595Z,99.57
2017-11-16T02:13:22.883Z,71.37
2017-11-16T02:15:51.196Z,80.30
2017-11-16T02:18:20.291Z,92.20
2017-11-16T02:20:48.619Z,89.87
2017-11-16T02:23:16.908Z,75.33
2017-11-16T02:25:45.204Z,62.63
2017-11-16T02:28:13.561Z,125.43
2017-11-16T02:30:42.619Z,91.97
2017-11-16T02:33:10.911Z,183.13
2017-11-16T02:35:39.230Z,121.77
2017-11-16T02:38:07.539Z,126.00
2017-11-16T02:40:36.636Z,118.80
2017-11-16T02:43:05.696Z,154.10
2017-11-16T02:45:34.014Z,181.07
2017-11-16T02:48:02.307Z,103.33
2017-11-16T02:50:32.140Z,88.30
2017-11-16T02:53:00.472Z,157.93
2017-11-16T02:55:28.773Z,113.07
2017-11-16T02:57:57.085Z,76.93
2017-11-16T03:00:25.405Z,109.97
2017-11-16T03:02:53.696Z,142.50
2017-11-16T03:05:22.790Z,85.00
2017-11-16T03:07:51.080Z,98.23
2017-11-16T03:10:20.188Z,70.03
2017-11-16T03:12:48.484Z,44.17
2017-11-16T03:15:16.969Z,67.67
2017-11-16T03:17:45.266Z,113.10
2017-11-16T03:20:13.560Z,49.67
2017-11-16T03:22:42.131Z,69.87
2017-11-16T03:25:10.437Z,83.03
2017-11-16T03:27:38.728Z,76.27
2017-11-16T03:30:07.118Z,50.07
2017-11-16T03:32:35.413Z,56.43
2017-11-16T03:35:04.521Z,146.63
2017-11-16T03:37:33.589Z,130.10
2017-11-16T03:40:01.952Z,80.57
2017-11-16T03:42:30.460Z,101.37
2017-11-16T03:44:58.760Z,179.17
2017-11-16T03:47:27.215Z,110.70
2017-11-16T03:49:56.299Z,71.03
2017-11-16T03:52:24.620Z,68.20
2017-11-16T03:54:52.969Z,63.90
2017-11-16T03:57:21.265Z,109.13
2017-11-16T03:59:49.561Z,80.77
2017-11-16T04:02:17.889Z,102.07
2017-11-16T04:04:46.226Z,116.57
2017-11-16T04:07:14.724Z,87.93
2017-11-16T04:09:43.014Z,101.20
2017-11-16T04:12:11.683Z,189.67
2017-11-16T04:14:40.016Z,101.07
2017-11-16T04:17:09.083Z,121.90
2017-11-16T04:19:37.406Z,52.23
2017-11-16T04:22:05.708Z,54.67
2017-11-16T04:24:34.896Z,66.17
2017-11-16T04:27:03.189Z,78.67
2017-11-16T04:29:31.517Z,55.90
2017-11-16T04:31:59.881Z,70.23
2017-11-16T04:34:28.929Z,72.53
2017-11-16T04:36:57.253Z,82.30
2017-11-16T04:39:25.584Z,118.67
2017-11-16T04:41:53.880Z,108.00
2017-11-16T04:44:22.208Z,69.97
2017-11-16T04:46:50.519Z,72.20
2017-11-16T04:49:18.858Z,130.63
2017-11-16T04:51:47.167Z,71.27
2017-11-16T04:54:15.485Z,56.13
2017-11-16T04:56:43.778Z,107.87
2017-11-16T04:59:12.120Z,146.40
2017-11-16T05:01:40.421Z,125.17
2017-11-16T05:04:08.753Z,77.60
2017-11-16T05:06:37.080Z,114.40
2017-11-16T05:09:05.408Z,205.90
2017-11-16T05:11:33.710Z,141.30
2017-11-16T05:14:02.103Z,77.10
2017-11-16T05:16:30.434Z,77.43
2017-11-16T05:18:58.736Z,97.70
2017-11-16T05:21:27.064Z,256.07
2017-11-16T05:23:55.405Z,162.60
2017-11-16T05:26:23.708Z,235.10
2017-11-16T05:28:52.188Z,169.00
2017-11-16T05:31:20.488Z,137.60
2017-11-16T05:33:48.795Z,215.43
2017-11-16T05:36:17.120Z,113.63
2017-11-16T05:38:45.429Z,150.50
2017-11-16T05:41:14.612Z,225.67
2017-11-16T05:43:42.928Z,198.77
2017-11-16T05:46:12.032Z,112.23
2017-11-16T05:48:41.109Z,194.50
2017-11-16T05:51:09.520Z,130.37
2017-11-16T05:53:38.611Z,69.23
2017-11-16T05:56:06.924Z,57.90
2017-11-16T05:58:35.991Z,108.30
2017-11-16T06:01:04.303Z,69.17
2017-11-16T06:03:32.588Z,99.77
2017-11-16T06:06:00.992Z,117.77
2017-11-16T06:08:30.063Z,91.43
2017-11-16T06:10:58.388Z,96.60
2017-11-16T06:13:26.676Z,178.33
2017-11-16T06:15:55.000Z,58.53
2017-11-16T06:18:23.352Z,44.73
2017-11-16T06:20:52.883Z,89.50
2017-11-16T06:23:21.949Z,40.70
2017-11-16T06:25:50.277Z,42.47
2017-11-16T06:28:18.576Z,60.00
2017-11-16T06:30:47.676Z,54.50
2017-11-16T06:33:16.733Z,53.67
2017-11-16T06:35:45.056Z,76.27
2017-11-16T06:38:13.393Z,89.03
2017-11-16T06:40:41.743Z,56.33
2017-11-16T06:43:10.080Z,93.87
2017-11-16T06:45:38.425Z,58.97
2017-11-16T06:48:06.721Z,68.80
2017-11-16T06:50:36.791Z,54.23
2017-11-16T06:53:05.138Z,48.63
2017-11-16T06:55:33.437Z,44.73
2017-11-16T06:58:02.531Z,64.57
2017-11-16T07:00:30.863Z,108.93
2017-11-16T07:02:59.211Z,45.43
2017-11-16T07:05:27.508Z,103.13
2017-11-16T07:07:56.580Z,67.13
2017-11-16T07:10:24.922Z,91.87
2017-11-16T07:12:53.225Z,118.93
2017-11-16T07:15:21.552Z,97.40
2017-11-16T07:17:49.961Z,61.80
2017-11-16T07:20:18.259Z,84.90
2017-11-16T07:22:46.648Z,57.73
2017-11-16T07:25:14.967Z,51.17
2017-11-16T07:27:44.029Z,60.90
2017-11-16T07:30:12.339Z,55.07
2017-11-16T07:32:41.396Z,83.77
2017-11-16T07:35:09.713Z,46.63
2017-11-16T07:37:38.009Z,44.50
2017-11-16T07:40:06.332Z,41.33
2017-11-16T07:42:35.395Z,56.67
2017-11-16T07:45:03.733Z,42.77
2017-11-16T07:47:32.784Z,48.53
2017-11-16T07:50:01.084Z,44.67
2017-11-16T07:52:29.404Z,51.40
2017-11-16T07:54:57.726Z,74.47
2017-11-16T07:57:26.040Z,54.37
2017-11-16T07:59:54.359Z,48.97
2017-11-16T08:02:22.654Z,46.73
2017-11-16T08:04:50.976Z,43.03
2017-11-16T08:07:19.267Z,42.83
2017-11-16T08:09:47.616Z,45.80
2017-11-16T08:12:15.908Z,55.37
2017-11-16T08:14:44.200Z,44.30
2017-11-16T08:17:12.518Z,44.30
2017-11-16T08:19:40.828Z,44.87
2017-11-16T08:22:09.163Z,46.03
2017-11-16T08:24:37.655Z,46.97
2017-11-16T08:27:05.948Z,69.00
2017-11-16T08:29:34.248Z,42.00
2017-11-16T08:32:02.928Z,41.23
2017-11-16T08:34:31.224Z,47.63
2017-11-16T08:36:59.524Z,41.50
2017-11-16T08:39:28.623Z,42.30
2017-11-16T08:41:56.918Z,47.53
2017-11-16T08:44:25.217Z,38.53
2017-11-16T08:46:54.306Z,40.97
2017-11-16T08:49:23.410Z,39.33
2017-11-16T08:51:51.708Z,42.90
2017-11-16T08:54:20.036Z,42.40
2017-11-16T08:56:48.330Z,42.53
2017-11-16T08:59:16.777Z,39.20
2017-11-16T09:01:45.072Z,43.07
2017-11-16T09:04:13.377Z,48.57
2017-11-16T09:06:42.469Z,49.37
2017-11-16T09:09:10.767Z,44.77
2017-11-16T09:11:39.964Z,54.50
2017-11-16T09:14:08.257Z,61.47
2017-11-16T09:16:36.641Z,39.30
2017-11-16T09:19:05.237Z,57.40
2017-11-16T09:21:33.527Z,51.37
2017-11-16T09:24:01.831Z,42.73
2017-11-16T09:26:30.938Z,70.13
2017-11-16T09:29:00.015Z,50.77
2017-11-16T09:31:29.551Z,71.33
2017-11-16T09:33:57.871Z,56.13
2017-11-16T09:36:26.166Z,58.43
2017-11-16T09:38:54.484Z,47.57
2017-11-16T09:41:22.818Z,64.50
2017-11-16T09:43:51.925Z,57.00
2017-11-16T09:46:21.026Z,47.73
2017-11-16T09:48:49.409Z,58.30
2017-11-16T09:51:17.713Z,68.80
2017-11-16T09:53:46.916Z,55.90
2017-11-16T09:56:15.236Z,55.23
2017-11-16T09:58:43.568Z,65.33
2017-11-16T10:01:11.897Z,50.43
2017-11-16T10:03:40.988Z,56.83
2017-11-16T10:06:09.288Z,59.27
2017-11-16T10:08:38.380Z,58.97
2017-11-16T10:11:06.679Z,50.50
2017-11-16T10:13:35.067Z,55.50
2017-11-16T10:16:03.361Z,60.03
2017-11-16T10:18:31.836Z,46.60
2017-11-16T10:21:00.153Z,46.17
2017-11-16T10:23:29.253Z,59.50
2017-11-16T10:25:57.632Z,51.80
2017-11-16T10:28:25.952Z,42.60
2017-11-16T10:30:55.013Z,39.53
2017-11-16T10:33:23.362Z,49.57
2017-11-16T10:35:51.676Z,52.27
2017-11-16T10:38:20.008Z,51.70
2017-11-16T10:40:48.344Z,46.90
2017-11-16T10:43:16.681Z,46.43
2017-11-16T10:45:45.001Z,46.33
2017-11-16T10:48:14.104Z,55.53
2017-11-16T10:50:43.202Z,56.03
2017-11-16T10:53:11.497Z,55.83
2017-11-16T10:55:40.602Z,41.90
2017-11-16T10:58:09.697Z,49.40
2017-11-16T11:00:38.000Z,44.00
2017-11-16T11:03:07.107Z,43.43
2017-11-16T11:05:36.220Z,43.37
2017-11-16T11:08:05.286Z,49.13
2017-11-16T11:10:33.619Z,43.40
2017-11-16T11:13:02.696Z,55.43
2017-11-16T11:15:31.040Z,55.80
2017-11-16T11:17:59.344Z,52.77
2017-11-16T11:20:28.564Z,51.83
2017-11-16T11:22:57.061Z,45.00
2017-11-16T11:25:25.396Z,49.10
2017-11-16T11:27:54.461Z,45.33
2017-11-16T11:30:22.777Z,48.77
2017-11-16T11:32:51.128Z,54.93
2017-11-16T11:35:19.557Z,49.00
2017-11-16T11:37:47.898Z,42.33
2017-11-16T11:40:16.224Z,48.93
2017-11-16T11:42:44.566Z,49.33
2017-11-16T11:45:12.877Z,44.97
2017-11-16T11:47:41.217Z,55.80
2017-11-16T11:50:09.516Z,46.70
2017-11-16T11:52:38.600Z,45.50
2017-11-16T11:55:06.904Z,43.63
2017-11-16T11:57:36.205Z,39.87
2017-11-16T12:00:04.517Z,39.53
2017-11-16T12:02:34.500Z,44.57
2017-11-16T12:05:02.820Z,39.33
2017-11-16T12:07:31.148Z,48.43
2017-11-16T12:09:59.449Z,49.17
2017-11-16T12:12:27.763Z,50.07
2017-11-16T12:14:56.064Z,50.17
2017-11-16T12:17:24.390Z,43.63
2017-11-16T12:19:53.467Z,43.87
2017-11-16T12:22:21.804Z,42.30
2017-11-16T12:24:50.106Z,41.20
2017-11-16T12:29:52.992Z,44.63
2017-11-16T12:32:23.317Z,40.00
2017-11-16T12:34:52.422Z,40.90
2017-11-16T12:37:20.761Z,37.00
2017-11-16T12:39:49.129Z,40.20
2017-11-16T12:42:18.193Z,40.30
2017-11-16T12:44:46.497Z,38.37
2017-11-16T12:47:14.812Z,38.87
2017-11-16T12:49:43.896Z,37.23
2017-11-16T12:52:12.227Z,39.70
2017-11-16T12:54:40.527Z,41.57
2017-11-16T12:57:08.851Z,37.00
2017-11-16T12:59:37.156Z,47.30
2017-11-16T13:02:06.252Z,39.83
2017-11-16T13:04:34.549Z,40.30
2017-11-16T13:07:02.905Z,38.90
2017-11-16T13:09:31.240Z,40.07
2017-11-16T13:12:00.309Z,36.00
2017-11-16T13:14:28.628Z,39.33
2017-11-16T13:16:56.957Z,34.67
2017-11-16T13:19:25.258Z,37.57
2017-11-16T13:21:53.589Z,38.50
2017-11-16T13:24:21.887Z,30.63
2017-11-16T13:26:50.217Z,37.80
2017-11-16T13:29:18.520Z,39.63
2017-11-16T13:31:46.853Z,39.97
2017-11-16T13:34:15.179Z,40.60
2017-11-16T13:36:43.508Z,34.13
2017-11-16T13:39:11.821Z,30.00
2017-11-16T13:41:40.932Z,28.63
2017-11-16T13:44:09.228Z,34.40
2017-11-16T13:46:37.559Z,33.50
2017-11-16T13:49:05.885Z,29.40
2017-11-16T13:51:34.602Z,35.33
2017-11-16T13:54:02.905Z,31.63
2017-11-16T13:56:31.967Z,31.80
2017-11-16T13:59:01.519Z,33.50
2017-11-16T14:01:29.820Z,34.73
2017-11-16T14:03:58.923Z,29.37
2017-11-16T14:06:27.220Z,36.20
2017-11-16T14:08:56.295Z,29.13
2017-11-16T14:11:24.695Z,30.20
2017-11-16T14:13:53.018Z,31.63
2017-11-16T14:16:21.325Z,30.43
2017-11-16T14:18:49.653Z,30.67
2017-11-16T14:21:17.954Z,34.73
2017-11-16T14:23:46.293Z,32.07
2017-11-16T14:26:14.637Z,30.60
2017-11-16T14:28:42.968Z,36.93
2017-11-16T14:31:11.260Z,31.80
2017-11-16T14:33:39.590Z,32.43
2017-11-16T14:36:07.889Z,34.27
2017-11-16T14:38:36.241Z,30.50
2017-11-16T14:41:04.534Z,31.90
2017-11-16T14:43:32.852Z,29.57
2017-11-16T14:46:01.181Z,32.47
2017-11-16T14:48:30.238Z,32.23
2017-11-16T14:50:58.552Z,34.83
2017-11-16T14:53:26.868Z,32.47
2017-11-16T14:55:55.932Z,39.33
2017-11-16T14:58:24.269Z,32.20
2017-11-16T15:00:53.331Z,34.80
2017-11-16T15:03:21.661Z,34.63
2017-11-16T15:05:49.973Z,34.17
2017-11-16T15:08:18.267Z,33.03
2017-11-16T15:10:46.580Z,30.50
2017-11-16T15:13:14.874Z,34.17
2017-11-16T15:15:43.197Z,30.43
2017-11-16T15:18:12.264Z,30.17
2017-11-16T15:20:40.590Z,29.60
2017-11-16T15:23:08.878Z,27.90
2017-11-16T15:25:38.079Z,27.70
2017-11-16T15:28:06.368Z,30.97
2017-11-16T15:30:34.685Z,31.40
2017-11-16T15:33:03.772Z,28.00
2017-11-16T15:35:32.861Z,29.03
2017-11-16T15:38:01.178Z,32.20
2017-11-16T15:40:30.255Z,30.33
2017-11-16T15:42:58.656Z,36.73
2017-11-16T15:45:26.949Z,30.10
2017-11-16T15:47:55.244Z,28.17
2017-11-16T15:50:23.572Z,31.07
2017-11-16T15:52:51.921Z,35.43
2017-11-16T15:55:20.216Z,31.10
2017-11-16T15:57:48.598Z,28.37
2017-11-16T16:00:16.895Z,32.77
2017-11-16T16:02:45.218Z,37.33
2017-11-16T16:05:13.512Z,26.93
2017-11-16T16:07:43.080Z,26.77
2017-11-16T16:10:11.385Z,22.80
2017-11-16T16:12:40.483Z,25.03
2017-11-16T16:15:08.844Z,29.83
2017-11-16T16:17:37.145Z,27.27
2017-11-16T16:20:05.440Z,29.23
2017-11-16T16:22:33.760Z,26.10
2017-11-16T16:25:02.820Z,24.37
2017-11-16T16:27:31.292Z,24.87
2017-11-16T16:29:59.592Z,29.70
2017-11-16T16:32:27.924Z,26.13
2017-11-16T16:34:56.243Z,23.63
2017-11-16T16:37:24.549Z,26.93
2017-11-16T16:39:52.885Z,33.27
2017-11-16T16:42:21.196Z,27.87
2017-11-16T16:44:50.253Z,24.90
2017-11-16T16:47:18.784Z,27.00
2017-11-16T16:49:47.089Z,26.57
2017-11-16T16:52:16.158Z,24.40
2017-11-16T16:54:44.515Z,25.03
2017-11-16T16:57:12.804Z,22.50
2017-11-16T16:59:41.099Z,21.47
2017-11-16T17:02:09.415Z,24.80
2017-11-16T17:04:37.719Z,25.40
2017-11-16T17:07:06.060Z,26.60
2017-11-16T17:09:34.357Z,24.70
2017-11-16T17:12:02.649Z,26.33
2017-11-16T17:14:30.972Z,26.47
2017-11-16T17:16:59.263Z,33.03
2017-11-16T17:19:27.667Z,27.80
2017-11-16T17:21:56.055Z,35.57
2017-11-16T17:24:25.676Z,33.13
2017-11-16T17:26:55.496Z,29.60
2017-11-16T17:29:23.801Z,23.50
2017-11-16T17:31:53.004Z,33.07
2017-11-16T17:34:21.320Z,35.13
2017-11-16T17:36:49.676Z,30.23
2017-11-16T17:39:18.001Z,33.93
2017-11-16T17:41:46.298Z,36.47
2017-11-16T17:44:14.633Z,30.83
2017-11-16T17:46:42.925Z,33.10
2017-11-16T17:49:11.215Z,34.33
2017-11-16T17:51:39.528Z,31.00
2017-11-16T17:54:08.589Z,30.47
2017-11-16T17:56:36.918Z,26.93
2017-11-16T17:59:05.213Z,31.97
2017-11-16T18:01:34.277Z,32.50
2017-11-16T18:04:02.612Z,34.40
2017-11-16T18:06:31.692Z,34.50
2017-11-16T18:08:59.993Z,32.03
2017-11-16T18:11:29.615Z,31.27
2017-11-16T18:13:57.908Z,33.60
2017-11-16T18:16:26.388Z,31.67
2017-11-16T18:18:54.684Z,36.30
2017-11-16T18:21:22.981Z,38.57
2017-11-16T18:23:51.327Z,32.03
2017-11-16T18:26:19.612Z,36.23
2017-11-16T18:28:47.941Z,31.63
2017-11-16T18:31:16.342Z,40.07
2017-11-16T18:33:44.639Z,35.73
2017-11-16T18:36:13.724Z,32.30
2017-11-16T18:38:43.524Z,35.50
2017-11-16T18:41:11.852Z,29.80
2017-11-16T18:43:40.912Z,31.13
2017-11-16T18:46:09.352Z,32.20
2017-11-16T18:48:38.039Z,31.33
2017-11-16T18:51:06.429Z,32.90
2017-11-16T18:53:36.245Z,38.27
2017-11-16T18:56:04.575Z,32.90
2017-11-16T18:58:33.807Z,29.73
2017-11-16T19:01:02.104Z,30.77
2017-11-16T19:03:30.437Z,34.33
2017-11-16T19:06:00.257Z,35.33
2017-11-16T19:08:28.743Z,33.17
2017-11-16T19:10:57.116Z,31.00
2017-11-16T19:13:25.436Z,36.10
2017-11-16T19:15:53.765Z,27.73
2017-11-16T19:18:22.060Z,35.70
2017-11-16T19:20:50.409Z,38.87
2017-11-16T19:23:18.716Z,31.80
2017-11-16T19:25:47.812Z,30.57
2017-11-16T19:28:16.106Z,30.50
2017-11-16T19:30:45.204Z,34.43
2017-11-16T19:33:13.505Z,31.87
2017-11-16T19:35:43.841Z,33.47
2017-11-16T19:38:12.140Z,36.20
2017-11-16T19:40:41.213Z,31.10
2017-11-16T19:43:09.535Z,29.20
2017-11-16T19:45:38.725Z,34.33
2017-11-16T19:48:07.016Z,30.90
2017-11-16T19:50:35.343Z,28.33
2017-11-16T19:53:03.986Z,28.33
2017-11-16T19:55:32.304Z,30.00
2017-11-16T19:58:01.508Z,32.47
2017-11-16T20:00:30.696Z,32.23
2017-11-16T20:02:58.989Z,34.37
2017-11-16T20:05:27.318Z,26.10
2017-11-16T20:07:55.664Z,32.60
2017-11-16T20:10:23.991Z,30.40
2017-11-16T20:12:53.049Z,31.53
2017-11-16T20:15:21.381Z,33.27
2017-11-16T20:17:50.446Z,32.70
2017-11-16T20:20:18.785Z,31.73
2017-11-16T20:22:47.852Z,33.03
2017-11-16T20:25:16.214Z,33.50
2017-11-16T20:27:44.565Z,42.93
2017-11-16T20:30:13.716Z,38.23
2017-11-16T20:32:42.017Z,34.70
2017-11-16T20:35:10.329Z,39.90
2017-11-16T20:37:44.420Z,30.00
2017-11-16T20:43:43.120Z,28.20
2017-11-16T20:46:15.262Z,32.80
2017-11-16T20:49:04.314Z,31.87
2017-11-16T20:51:49.364Z,35.20
2017-11-16T20:54:19.312Z,33.83
2017-11-16T20:56:47.635Z,35.40
2017-11-16T20:59:15.924Z,33.27
2017-11-16T21:01:44.243Z,35.23
2017-11-16T21:04:12.535Z,30.77
2017-11-16T21:06:40.870Z,29.77
2017-11-16T21:09:09.164Z,29.03
2017-11-16T21:11:37.491Z,33.80
2017-11-16T21:14:05.786Z,36.43
2017-11-16T21:16:34.120Z,36.37
2017-11-16T21:19:02.452Z,35.53
2017-11-16T21:21:30.756Z,31.50
2017-11-16T21:23:59.158Z,34.37
2017-11-16T21:26:27.466Z,30.80
2017-11-16T21:28:56.528Z,34.63
2017-11-16T21:31:24.854Z,44.70
2017-11-16T21:33:53.927Z,33.57
2017-11-16T21:36:22.239Z,37.13
2017-11-16T21:38:50.541Z,33.07
2017-11-16T21:41:19.633Z,31.63
2017-11-16T21:43:47.942Z,40.13
2017-11-16T21:46:17.138Z,35.43
2017-11-16T21:48:45.429Z,30.23
2017-11-16T21:51:13.814Z,36.80
2017-11-16T21:53:42.187Z,32.00
2017-11-16T21:56:10.509Z,32.50
2017-11-16T21:58:39.570Z,37.83
2017-11-16T22:01:08.857Z,33.53
2017-11-16T22:03:37.198Z,32.93
2017-11-16T22:06:07.008Z,44.13
2017-11-16T22:08:35.336Z,35.07
2017-11-16T22:11:04.426Z,39.20
2017-11-16T22:13:32.721Z,36.80
2017-11-16T22:16:01.037Z,40.10
2017-11-16T22:18:29.353Z,35.00
2017-11-16T22:20:57.683Z,42.27
2017-11-16T22:23:26.631Z,32.77
2017-11-16T22:25:54.940Z,34.50
2017-11-16T22:28:23.232Z,39.03
2017-11-16T22:30:51.560Z,38.40
2017-11-16T22:33:19.863Z,36.50
2017-11-16T22:35:48.357Z,37.83
2017-11-16T22:38:17.428Z,40.10
2017-11-16T22:40:45.718Z,44.10
2017-11-16T22:43:14.044Z,41.00
2017-11-16T22:45:43.100Z,46.70
2017-11-16T22:48:11.429Z,38.63
2017-11-16T22:50:40.628Z,50.10
2017-11-16T22:53:08.941Z,43.97
2017-11-16T22:55:38.042Z,48.20
2017-11-16T22:58:07.106Z,35.73
2017-11-16T23:00:35.399Z,42.57
2017-11-16T23:03:03.733Z,47.13
2017-11-16T23:05:32.853Z,43.40
2017-11-16T23:08:01.179Z,39.43
2017-11-16T23:10:29.472Z,37.50
2017-11-16T23:12:57.792Z,45.30
2017-11-16T23:15:27.412Z,50.23
2017-11-16T23:17:55.700Z,42.70
2017-11-16T23:20:24.004Z,52.93
2017-11-16T23:22:52.341Z,45.63
2017-11-16T23:25:20.671Z,49.30
2017-11-16T23:27:48.996Z,50.17
2017-11-16T23:30:17.329Z,48.63
2017-11-16T23:32:47.191Z,44.20
2017-11-16T23:35:16.256Z,46.47
2017-11-16T23:37:44.676Z,51.20
2017-11-16T23:40:13.024Z,50.23
2017-11-16T23:42:41.327Z,48.30
2017-11-16T23:45:09.658Z,48.37
2017-11-16T23:47:38.758Z,51.37
2017-11-16T23:50:07.072Z,44.33
2017-11-16T23:52:35.381Z,52.07
2017-11-16T23:55:03.758Z,50.73
2017-11-16T23:57:32.261Z,49.97
